createdAt,value
2022-08-20T00:00:24.515Z,19.41
2022-08-20T00:03:00.295Z,19.43
2022-08-20T00:05:30.387Z,19.30
2022-08-20T00:07:58.187Z,19.14
2022-08-20T00:10:25.476Z,19.24
2022-08-20T00:12:52.054Z,19.37
2022-08-20T00:15:21.495Z,19.53
2022-08-20T00:17:49.892Z,19.51
2022-08-20T00:20:18.022Z,19.45
2022-08-20T00:22:47.382Z,19.50
2022-08-20T00:25:14.247Z,19.33
2022-08-20T00:27:40.897Z,19.20
2022-08-20T00:30:09.759Z,19.18
2022-08-20T00:33:08.654Z,19.16
2022-08-20T00:35:37.431Z,19.23
2022-08-20T00:38:04.082Z,19.35
2022-08-20T00:40:40.884Z,19.22
2022-08-20T00:43:28.490Z,19.27
2022-08-20T00:45:56.607Z,19.11
2022-08-20T00:48:28.203Z,19.27
2022-08-20T00:51:00.872Z,19.37
2022-08-20T00:53:28.207Z,19.34
2022-08-20T00:55:55.304Z,19.38
2022-08-20T00:58:21.249Z,19.19
2022-08-20T01:00:48.902Z,19.21
2022-08-20T01:03:17.089Z,19.16
2022-08-20T01:05:47.755Z,19.35
2022-08-20T01:08:16.109Z,19.37
2022-08-20T01:10:44.576Z,19.38
2022-08-20T01:13:13.799Z,19.37
2022-08-20T01:15:45.944Z,19.45
2022-08-20T01:18:20.083Z,19.30
2022-08-20T01:20:51.086Z,19.43
2022-08-20T01:23:31.924Z,19.29
2022-08-20T01:26:12.281Z,19.38
2022-08-20T01:28:52.757Z,19.31
2022-08-20T01:31:24.856Z,19.19
2022-08-20T01:33:52.287Z,19.26
2022-08-20T01:36:23.891Z,19.25
2022-08-20T01:38:54.025Z,19.06
2022-08-20T01:41:43.111Z,19.13
2022-08-20T01:44:13.867Z,19.17
2022-08-20T01:46:45.346Z,19.08
2022-08-20T01:49:23.169Z,19.02
2022-08-20T01:51:51.741Z,19.00
2022-08-20T01:54:17.727Z,19.09
2022-08-20T01:56:53.723Z,19.10
2022-08-20T01:59:19.792Z,19.06
2022-08-20T02:01:46.732Z,19.02
2022-08-20T02:04:15.424Z,19.02
2022-08-20T02:06:56.351Z,18.88
2022-08-20T02:09:29.046Z,18.87
2022-08-20T02:11:56.763Z,18.91
2022-08-20T02:14:23.697Z,18.94
2022-08-20T02:16:55.298Z,18.97
2022-08-20T02:19:39.611Z,18.95
2022-08-20T02:22:17.064Z,18.90
2022-08-20T02:24:43.439Z,18.80
2022-08-20T02:27:09.504Z,18.87
2022-08-20T02:29:35.561Z,18.70
2022-08-20T02:32:25.030Z,18.72
2022-08-20T02:34:48.840Z,18.82
2022-08-20T02:37:17.637Z,18.87
2022-08-20T02:39:45.278Z,18.87
2022-08-20T02:42:11.803Z,18.93
2022-08-20T02:44:39.041Z,18.89
2022-08-20T02:47:06.399Z,18.92
2022-08-20T02:49:32.358Z,18.76
2022-08-20T02:51:58.472Z,18.67
2022-08-20T02:54:24.471Z,18.62
2022-08-20T02:56:51.499Z,18.73
2022-08-20T02:59:19.746Z,18.76
2022-08-20T03:01:47.711Z,18.85
2022-08-20T03:04:26.075Z,18.83
2022-08-20T03:06:52.196Z,18.76
2022-08-20T03:09:18.356Z,18.77
2022-08-20T03:11:44.799Z,18.75
2022-08-20T03:14:11.087Z,18.66
2022-08-20T03:16:37.005Z,18.64
2022-08-20T03:19:02.884Z,18.65
2022-08-20T03:21:28.952Z,18.65
2022-08-20T03:23:55.093Z,18.62
2022-08-20T03:26:21.214Z,18.57
2022-08-20T03:28:47.190Z,18.67
2022-08-20T03:31:16.131Z,18.55
2022-08-20T03:33:53.374Z,18.60
2022-08-20T03:36:22.263Z,18.66
2022-08-20T03:38:56.879Z,18.53
2022-08-20T03:41:23.236Z,18.58
2022-08-20T03:43:49.345Z,18.72
2022-08-20T03:46:23.064Z,18.74
2022-08-20T03:48:59.534Z,18.51
2022-08-20T03:51:28.936Z,18.50
2022-08-20T03:53:54.890Z,18.49
2022-08-20T03:56:20.847Z,18.43
2022-08-20T03:58:46.991Z,18.48
2022-08-20T04:01:45.335Z,18.35
2022-08-20T04:03:59.854Z,18.45
2022-08-20T04:06:28.530Z,18.37
2022-08-20T04:08:55.970Z,18.39
2022-08-20T04:11:23.517Z,18.36
2022-08-20T04:13:49.445Z,18.37
2022-08-20T04:16:15.691Z,18.34
2022-08-20T04:18:42.921Z,18.35
2022-08-20T04:21:24.596Z,18.35
2022-08-20T04:23:55.940Z,18.40
2022-08-20T04:26:21.879Z,18.42
2022-08-20T04:28:49.284Z,18.42
2022-08-20T04:31:17.788Z,18.33
2022-08-20T04:33:45.288Z,18.33
2022-08-20T04:36:11.416Z,18.45
2022-08-20T04:38:49.674Z,18.36
2022-08-20T04:41:23.072Z,18.39
2022-08-20T04:43:52.957Z,18.19
2022-08-20T04:46:20.346Z,18.20
2022-08-20T04:48:48.684Z,18.03
2022-08-20T04:51:15.249Z,18.12
2022-08-20T04:53:42.357Z,18.14
2022-08-20T04:56:08.720Z,18.11
2022-08-20T04:58:37.460Z,18.21
2022-08-20T05:01:07.553Z,18.23
2022-08-20T05:03:35.204Z,18.24
2022-08-20T05:06:01.175Z,18.14
2022-08-20T05:08:28.610Z,18.24
2022-08-20T05:11:32.731Z,18.32
2022-08-20T05:13:42.211Z,18.21
2022-08-20T05:16:09.174Z,18.36
2022-08-20T05:18:35.180Z,18.38
2022-08-20T05:21:05.216Z,18.33
2022-08-20T05:23:35.566Z,18.38
2022-08-20T05:26:06.714Z,18.40
2022-08-20T05:28:36.843Z,18.21
2022-08-20T05:31:19.866Z,18.24
2022-08-20T05:33:45.812Z,18.29
2022-08-20T05:36:11.995Z,18.35
2022-08-20T05:38:41.374Z,18.31
2022-08-20T05:41:27.715Z,18.36
2022-08-20T05:44:01.654Z,18.26
2022-08-20T05:46:30.554Z,18.46
2022-08-20T05:48:59.538Z,18.41
2022-08-20T05:51:26.981Z,18.32
2022-08-20T05:53:52.908Z,18.27
2022-08-20T05:56:18.828Z,18.40
2022-08-20T05:58:47.636Z,18.41
2022-08-20T06:01:17.205Z,18.57
2022-08-20T06:04:01.505Z,18.64
2022-08-20T06:06:45.156Z,18.56
2022-08-20T06:09:13.446Z,18.54
2022-08-20T06:11:39.346Z,18.51
2022-08-20T06:14:05.306Z,18.67
2022-08-20T06:16:31.484Z,18.86
2022-08-20T06:18:58.211Z,18.85
2022-08-20T06:21:24.361Z,18.94
2022-08-20T06:23:57.094Z,18.87
2022-08-20T06:26:30.569Z,18.76
2022-08-20T06:28:58.442Z,18.75
2022-08-20T06:31:24.479Z,18.72
2022-08-20T06:33:50.402Z,18.93
2022-08-20T06:36:18.900Z,18.81
2022-08-20T06:38:45.937Z,18.83
2022-08-20T06:41:11.900Z,18.88
2022-08-20T06:43:37.865Z,18.68
2022-08-20T06:46:04.090Z,18.54
2022-08-20T06:48:30.525Z,18.53
2022-08-20T06:50:57.080Z,18.45
2022-08-20T06:53:23.015Z,18.25
2022-08-20T06:55:54.205Z,18.37
2022-08-20T06:58:35.754Z,18.12
2022-08-20T07:01:10.237Z,18.36
2022-08-20T07:03:42.252Z,18.35
2022-08-20T07:06:21.382Z,18.19
2022-08-20T07:08:47.346Z,18.32
2022-08-20T07:11:13.274Z,18.37
2022-08-20T07:13:40.740Z,18.46
2022-08-20T07:16:06.810Z,18.52
2022-08-20T07:18:32.954Z,18.44
2022-08-20T07:20:59.005Z,18.44
2022-08-20T07:23:25.822Z,18.41
2022-08-20T07:25:51.974Z,18.35
2022-08-20T07:28:21.975Z,18.42
2022-08-20T07:31:13.219Z,18.51
2022-08-20T07:33:41.023Z,18.42
2022-08-20T07:36:08.365Z,18.30
2022-08-20T07:38:35.309Z,18.33
2022-08-20T07:41:12.647Z,18.33
2022-08-20T07:43:39.607Z,18.36
2022-08-20T07:46:06.968Z,18.18
2022-08-20T07:48:34.022Z,18.27
2022-08-20T07:51:03.543Z,18.31
2022-08-20T07:53:35.571Z,18.42
2022-08-20T07:56:05.268Z,18.52
2022-08-20T07:58:33.649Z,18.53
2022-08-20T08:00:59.949Z,18.60
2022-08-20T08:03:40.999Z,18.59
2022-08-20T08:06:13.574Z,18.55
2022-08-20T08:08:41.156Z,18.61
2022-08-20T08:11:07.974Z,18.74
2022-08-20T08:13:38.656Z,18.78
2022-08-20T08:16:06.096Z,18.77
2022-08-20T08:18:49.786Z,18.64
2022-08-20T08:21:17.108Z,18.75
2022-08-20T08:23:43.883Z,18.64
2022-08-20T08:26:16.293Z,18.68
2022-08-20T08:28:45.647Z,18.67
2022-08-20T08:31:11.707Z,18.78
2022-08-20T08:33:40.002Z,18.54
2022-08-20T08:36:09.105Z,18.52
2022-08-20T08:38:37.467Z,18.56
2022-08-20T08:41:36.873Z,18.57
2022-08-20T08:44:21.151Z,18.67
2022-08-20T08:46:50.480Z,18.95
2022-08-20T08:49:22.465Z,18.78
2022-08-20T08:51:55.497Z,18.82
2022-08-20T08:54:26.836Z,19.04
2022-08-20T08:56:53.904Z,19.20
2022-08-20T08:59:21.832Z,19.25
2022-08-20T09:01:57.145Z,19.62
2022-08-20T09:04:32.000Z,19.83
2022-08-20T09:06:58.855Z,19.94
2022-08-20T09:09:29.096Z,19.84
2022-08-20T09:12:03.783Z,19.75
2022-08-20T09:14:29.709Z,19.73
2022-08-20T09:16:55.684Z,19.73
2022-08-20T09:19:21.639Z,19.81
2022-08-20T09:21:47.849Z,20.00
2022-08-20T09:24:13.872Z,20.05
2022-08-20T09:26:39.878Z,20.01
2022-08-20T09:29:05.823Z,20.02
2022-08-20T09:31:32.374Z,19.70
2022-08-20T09:33:58.459Z,19.60
2022-08-20T09:36:31.810Z,19.73
2022-08-20T09:38:59.221Z,19.88
2022-08-20T09:41:25.160Z,20.03
2022-08-20T09:43:51.078Z,20.16
2022-08-20T09:46:17.020Z,20.27
2022-08-20T09:48:42.969Z,20.61
2022-08-20T09:51:09.026Z,20.64
2022-08-20T09:53:35.258Z,20.66
2022-08-20T09:56:01.272Z,20.46
2022-08-20T09:58:49.939Z,20.07
2022-08-20T10:01:18.188Z,19.49
2022-08-20T10:03:48.074Z,19.63
2022-08-20T10:06:15.949Z,19.65
2022-08-20T10:08:42.910Z,19.35
2022-08-20T10:11:08.975Z,19.11
2022-08-20T10:13:34.935Z,18.94
2022-08-20T10:16:00.865Z,18.84
2022-08-20T10:18:26.816Z,18.78
2022-08-20T10:20:53.189Z,18.64
2022-08-20T10:23:19.306Z,18.88
2022-08-20T10:25:45.259Z,19.17
2022-08-20T10:28:11.513Z,20.23
2022-08-20T10:30:37.941Z,21.01
2022-08-20T10:33:03.967Z,20.89
2022-08-20T10:35:30.070Z,20.58
2022-08-20T10:37:56.253Z,20.93
2022-08-20T10:40:22.445Z,21.14
2022-08-20T10:42:48.452Z,21.24
2022-08-20T10:45:19.649Z,20.90
2022-08-20T10:47:46.178Z,20.60
2022-08-20T10:50:15.571Z,20.16
2022-08-20T10:52:41.628Z,19.88
2022-08-20T10:55:08.371Z,19.66
2022-08-20T10:57:34.483Z,19.54
2022-08-20T11:00:00.830Z,19.51
2022-08-20T11:02:27.983Z,19.18
2022-08-20T11:04:54.360Z,18.43
2022-08-20T11:07:50.773Z,18.64
2022-08-20T11:10:13.963Z,18.35
2022-08-20T11:12:40.356Z,18.23
2022-08-20T11:15:09.419Z,18.74
2022-08-20T11:17:39.320Z,19.41
2022-08-20T11:20:07.302Z,19.96
2022-08-20T11:22:34.259Z,20.38
2022-08-20T11:25:00.282Z,20.73
2022-08-20T11:27:39.264Z,21.20
2022-08-20T11:30:08.914Z,20.93
2022-08-20T11:32:35.287Z,21.45
2022-08-20T11:35:13.826Z,21.36
2022-08-20T11:37:47.508Z,21.10
2022-08-20T11:40:13.526Z,20.95
2022-08-20T11:42:53.391Z,21.31
2022-08-20T11:45:25.499Z,21.38
2022-08-20T11:47:51.517Z,21.70
2022-08-20T11:50:20.183Z,21.97
2022-08-20T11:52:46.516Z,22.72
2022-08-20T11:55:13.876Z,22.76
2022-08-20T11:57:45.348Z,21.80
2022-08-20T12:00:17.897Z,21.68
2022-08-20T12:02:44.147Z,21.81
2022-08-20T12:05:11.462Z,21.93
2022-08-20T12:07:38.086Z,22.68
2022-08-20T12:10:06.057Z,23.31
2022-08-20T12:12:32.422Z,23.54
2022-08-20T12:14:58.473Z,23.13
2022-08-20T12:17:27.681Z,22.62
2022-08-20T12:19:55.737Z,22.53
2022-08-20T12:22:24.669Z,23.11
2022-08-20T12:24:52.738Z,22.99
2022-08-20T12:27:22.479Z,22.88
2022-08-20T12:29:52.631Z,22.99
2022-08-20T12:32:21.301Z,22.22
2022-08-20T12:34:47.848Z,21.66
2022-08-20T12:37:17.150Z,21.53
2022-08-20T12:39:45.533Z,21.51
2022-08-20T12:42:11.849Z,21.88
2022-08-20T12:44:38.583Z,22.78
2022-08-20T12:47:10.890Z,22.99
2022-08-20T12:49:38.189Z,22.62
2022-08-20T12:52:04.860Z,23.35
2022-08-20T12:54:31.193Z,23.69
2022-08-20T12:56:57.185Z,23.69
2022-08-20T12:59:26.130Z,23.12
2022-08-20T13:01:53.710Z,23.55
2022-08-20T13:04:20.237Z,24.06
2022-08-20T13:06:46.679Z,24.17
2022-08-20T13:09:13.826Z,23.74
2022-08-20T13:11:40.561Z,22.96
2022-08-20T13:14:07.114Z,22.76
2022-08-20T13:16:33.233Z,22.61
2022-08-20T13:18:59.379Z,23.01
2022-08-20T13:21:25.690Z,24.12
2022-08-20T13:23:51.654Z,25.03
2022-08-20T13:26:17.674Z,25.48
2022-08-20T13:28:43.677Z,24.82
2022-08-20T13:31:09.811Z,24.72
2022-08-20T13:33:35.754Z,24.07
2022-08-20T13:36:02.607Z,24.02
2022-08-20T13:38:30.508Z,23.70
2022-08-20T13:40:56.458Z,23.56
2022-08-20T13:43:22.373Z,23.93
2022-08-20T13:45:48.398Z,24.21
2022-08-20T13:48:15.232Z,24.35
2022-08-20T13:50:42.269Z,24.59
2022-08-20T13:53:08.171Z,24.38
2022-08-20T13:55:34.135Z,23.86
2022-08-20T13:58:03.917Z,24.22
2022-08-20T14:00:32.631Z,24.87
2022-08-20T14:03:03.444Z,25.28
2022-08-20T14:05:30.073Z,25.49
2022-08-20T14:08:03.916Z,25.28
2022-08-20T14:10:32.157Z,25.50
2022-08-20T14:12:59.771Z,25.61
2022-08-20T14:15:25.771Z,25.92
2022-08-20T14:17:54.433Z,25.76
2022-08-20T14:20:23.472Z,26.11
2022-08-20T14:22:49.329Z,26.00
2022-08-20T14:25:17.680Z,25.95
2022-08-20T14:27:43.942Z,26.15
2022-08-20T14:30:16.271Z,26.66
2022-08-20T14:32:42.126Z,26.78
2022-08-20T14:35:09.286Z,26.06
2022-08-20T14:37:38.744Z,26.20
2022-08-20T14:40:11.803Z,26.47
2022-08-20T14:42:37.795Z,26.18
2022-08-20T14:45:05.766Z,26.53
2022-08-20T14:47:34.938Z,26.44
2022-08-20T14:50:14.089Z,26.75
2022-08-20T14:52:41.115Z,27.08
2022-08-20T14:55:12.244Z,26.50
2022-08-20T14:57:39.180Z,26.49
2022-08-20T15:00:09.269Z,26.30
2022-08-20T15:02:35.990Z,26.04
2022-08-20T15:05:03.842Z,25.93
2022-08-20T15:07:36.631Z,26.31
2022-08-20T15:10:09.023Z,26.28
2022-08-20T15:12:34.919Z,26.11
2022-08-20T15:15:13.403Z,26.07
2022-08-20T15:17:47.486Z,25.37
2022-08-20T15:20:20.338Z,25.22
2022-08-20T15:22:48.028Z,25.64
2022-08-20T15:25:15.862Z,25.89
2022-08-20T15:27:41.896Z,26.45
2022-08-20T15:30:13.673Z,26.55
2022-08-20T15:32:39.668Z,26.22
2022-08-20T15:35:07.304Z,26.41
2022-08-20T15:37:33.204Z,26.34
2022-08-20T15:40:06.690Z,26.31
2022-08-20T15:42:32.591Z,25.78
2022-08-20T15:44:58.565Z,25.74
2022-08-20T15:47:26.803Z,25.93
2022-08-20T15:50:04.482Z,26.06
2022-08-20T15:52:42.229Z,25.98
2022-08-20T15:55:12.644Z,26.48
2022-08-20T15:57:59.908Z,26.69
2022-08-20T16:00:33.668Z,26.87
2022-08-20T16:03:38.094Z,26.23
2022-08-20T16:06:17.821Z,25.98
2022-08-20T16:08:49.385Z,25.26
2022-08-20T16:11:36.456Z,24.63
2022-08-20T16:14:19.302Z,24.30
2022-08-20T16:17:01.053Z,24.79
2022-08-20T16:19:34.245Z,25.31
2022-08-20T16:22:03.291Z,25.68
2022-08-20T16:24:29.652Z,25.79
2022-08-20T16:27:07.075Z,25.43
2022-08-20T16:29:38.698Z,25.14
2022-08-20T16:32:17.059Z,24.75
2022-08-20T16:35:06.461Z,24.31
2022-08-20T16:37:32.217Z,24.53
2022-08-20T16:40:03.285Z,24.63
2022-08-20T16:42:36.945Z,24.41
2022-08-20T16:45:06.576Z,24.73
2022-08-20T16:47:40.089Z,24.70
2022-08-20T16:50:16.025Z,25.20
2022-08-20T16:55:11.412Z,24.98
2022-08-20T16:57:37.353Z,24.59
2022-08-20T17:00:20.380Z,24.86
2022-08-20T17:02:54.765Z,24.67
2022-08-20T17:05:23.074Z,24.64
2022-08-20T17:07:58.438Z,24.28
2022-08-20T17:10:27.423Z,24.14
2022-08-20T17:13:14.253Z,24.20
2022-08-20T17:15:43.154Z,23.77
2022-08-20T17:18:24.993Z,23.46
2022-08-20T17:20:52.048Z,23.46
2022-08-20T17:23:20.317Z,23.40
2022-08-20T17:25:57.385Z,23.20
2022-08-20T17:28:23.280Z,23.11
2022-08-20T17:30:50.335Z,23.37
2022-08-20T17:33:19.047Z,23.37
2022-08-20T17:35:52.138Z,23.26
2022-08-20T17:38:31.456Z,22.90
2022-08-20T17:41:02.939Z,22.73
2022-08-20T17:43:32.654Z,22.73
2022-08-20T17:46:02.976Z,22.76
2022-08-20T17:48:37.483Z,22.70
2022-08-20T17:51:15.825Z,22.69
2022-08-20T17:53:43.442Z,22.63
2022-08-20T17:56:32.324Z,22.66
2022-08-20T17:59:40.909Z,22.62
2022-08-20T18:02:12.677Z,22.37
2022-08-20T18:04:38.609Z,22.43
2022-08-20T18:07:10.349Z,22.40
2022-08-20T18:09:46.600Z,22.16
2022-08-20T18:12:33.606Z,21.97
2022-08-20T18:15:03.289Z,21.92
2022-08-20T18:17:29.282Z,21.77
2022-08-20T18:20:10.565Z,21.85
2022-08-20T18:22:50.486Z,21.82
2022-08-20T18:25:32.935Z,21.74
2022-08-20T18:28:25.670Z,21.51
2022-08-20T18:31:03.233Z,21.38
2022-08-20T18:33:47.293Z,21.34
2022-08-20T18:36:19.115Z,21.31
2022-08-20T18:39:09.105Z,21.31
2022-08-20T18:41:57.983Z,21.23
2022-08-20T18:44:44.034Z,21.11
2022-08-20T18:47:23.900Z,21.12
2022-08-20T18:50:17.030Z,21.05
2022-08-20T18:53:16.073Z,21.04
2022-08-20T18:55:46.001Z,20.91
2022-08-20T18:58:15.110Z,20.91
2022-08-20T19:00:47.559Z,21.01
2022-08-20T19:03:34.169Z,20.58
2022-08-20T19:06:08.131Z,20.41
2022-08-20T19:08:42.478Z,20.37
2022-08-20T19:11:36.669Z,20.22
2022-08-20T19:14:30.594Z,20.17
2022-08-20T19:17:03.749Z,20.21
2022-08-20T19:19:32.827Z,20.07
2022-08-20T19:22:01.421Z,20.13
2022-08-20T19:24:34.589Z,20.07
2022-08-20T19:27:08.542Z,20.07
2022-08-20T19:29:49.012Z,20.18
2022-08-20T19:32:27.802Z,20.11
2022-08-20T19:34:57.153Z,20.05
2022-08-20T19:37:44.324Z,20.12
2022-08-20T19:40:28.803Z,20.11
2022-08-20T19:42:57.634Z,20.17
2022-08-20T19:45:36.602Z,20.07
2022-08-20T19:48:08.173Z,20.02
2022-08-20T19:50:43.820Z,19.96
2022-08-20T19:53:31.244Z,20.04
2022-08-20T19:56:04.259Z,19.83
2022-08-20T19:58:32.243Z,19.65
2022-08-20T20:01:00.499Z,19.73
2022-08-20T20:03:32.781Z,19.82
2022-08-20T20:06:16.160Z,19.91
2022-08-20T20:08:56.552Z,19.78
2022-08-20T20:11:48.830Z,19.76
2022-08-20T20:14:17.410Z,19.68
2022-08-20T20:16:44.947Z,19.59
2022-08-20T20:19:28.639Z,19.63
2022-08-20T20:22:06.249Z,19.69
2022-08-20T20:24:50.063Z,19.63
2022-08-20T20:27:23.208Z,19.61
2022-08-20T20:29:56.888Z,19.70
2022-08-20T20:32:24.341Z,19.61
2022-08-20T20:34:56.167Z,19.54
2022-08-20T20:37:46.631Z,19.46
2022-08-20T20:40:53.481Z,19.51
2022-08-20T20:43:41.508Z,19.53
2022-08-20T20:46:20.507Z,19.61
2022-08-20T20:48:56.312Z,19.60
2022-08-20T20:51:22.170Z,19.55
2022-08-20T20:53:54.300Z,19.58
2022-08-20T20:56:55.195Z,19.63
2022-08-20T20:59:21.101Z,19.54
2022-08-20T21:01:49.914Z,19.45
2022-08-20T21:04:19.199Z,19.50
2022-08-20T21:06:45.386Z,19.47
2022-08-20T21:09:11.592Z,19.56
2022-08-20T21:11:37.500Z,19.38
2022-08-20T21:14:03.437Z,19.44
2022-08-20T21:16:29.428Z,19.30
2022-08-20T21:18:55.654Z,19.28
2022-08-20T21:21:21.569Z,19.09
2022-08-20T21:23:47.650Z,19.16
2022-08-20T21:26:13.554Z,19.14
2022-08-20T21:28:39.522Z,19.09
2022-08-20T21:31:05.619Z,19.13
2022-08-20T21:33:31.506Z,19.06
2022-08-20T21:35:57.326Z,19.03
2022-08-20T21:38:23.663Z,19.06
2022-08-20T21:40:49.838Z,19.19
2022-08-20T21:43:15.938Z,19.11
2022-08-20T21:45:44.681Z,19.17
2022-08-20T21:48:10.856Z,19.13
2022-08-20T21:50:36.992Z,18.99
2022-08-20T21:53:03.179Z,19.02
2022-08-20T21:55:40.048Z,18.98
2022-08-20T21:58:06.413Z,18.89
2022-08-20T22:00:47.500Z,18.86
2022-08-20T22:03:14.535Z,18.84
2022-08-20T22:05:41.253Z,18.93
2022-08-20T22:08:07.568Z,18.85
2022-08-20T22:10:34.023Z,18.90
2022-08-20T22:12:59.928Z,18.92
2022-08-20T22:15:25.919Z,18.94
2022-08-20T22:17:52.231Z,18.89
2022-08-20T22:20:18.136Z,18.85
2022-08-20T22:22:46.003Z,18.79
2022-08-20T22:25:12.801Z,18.65
2022-08-20T22:27:39.361Z,18.68
2022-08-20T22:30:05.952Z,18.63
2022-08-20T22:32:33.845Z,18.55
2022-08-20T22:35:17.651Z,18.52
2022-08-20T22:37:43.718Z,18.52
2022-08-20T22:40:10.042Z,18.61
2022-08-20T22:42:35.845Z,18.45
2022-08-20T22:45:01.676Z,18.41
2022-08-20T22:47:28.650Z,18.36
2022-08-20T22:49:55.999Z,18.38
2022-08-20T22:52:24.085Z,18.40
2022-08-20T22:54:52.688Z,18.30
2022-08-20T22:57:20.469Z,18.13
2022-08-20T22:59:53.192Z,18.11
2022-08-20T23:02:21.351Z,17.98
2022-08-20T23:04:47.185Z,18.04
2022-08-20T23:07:14.122Z,17.82
2022-08-20T23:09:41.687Z,17.79
2022-08-20T23:12:08.204Z,17.81
2022-08-20T23:14:34.375Z,17.75
2022-08-20T23:17:13.447Z,17.83
2022-08-20T23:19:40.728Z,17.86
2022-08-20T23:22:07.530Z,17.89
2022-08-20T23:24:34.345Z,17.92
2022-08-20T23:27:01.126Z,17.93
2022-08-20T23:29:28.393Z,17.91
2022-08-20T23:31:55.750Z,17.87
2022-08-20T23:34:22.091Z,17.87
2022-08-20T23:36:48.633Z,17.92
2022-08-20T23:39:14.441Z,17.92
2022-08-20T23:41:47.546Z,17.91
2022-08-20T23:44:25.318Z,17.93
2022-08-20T23:46:54.815Z,18.01
2022-08-20T23:49:20.723Z,17.92
2022-08-20T23:51:46.506Z,17.92
2022-08-20T23:54:12.311Z,17.96
2022-08-20T23:56:38.232Z,17.89
2022-08-20T23:59:05.046Z,17.72
